College Heights Durango, Colorado
Current Conditions -  °F | °C
As of 8:53 PM on Wednesday 22 Oct 2014 (Local Time) from KDRO Reporting Station
Clear Clear  
Wind Chill: 51°   Ceiling: Unl
Heat Index: 51°   Visibility: 10mi
Dew Point: 37°   Wind: 3mph
Humidity: 59%   Direction: 230°SW
Pressure: 30.24"   Gusts: NA
Location:  37.1483°N, 107.911°W
Report Text: KDRO 230253Z AUTO 23003KT 10SM CLR 11/03 A3024 RMK AO2 SLP210 T01060028 51014
Loading
Personal Weather Stations






























Interactive Weather Map
Tropical Storm Tracking
New forecast layout! Learn more

10-Day Weather Forecast

Advertisements
Track Severe Weather on mobile